Time;durP1;ratioP1;P1;durP2;ratioP2;P2;SDS_P1;SDS_P2;PMS_P1;PMS_P2;Temp;Humidity;BMP_temperature;BMP_pressure;BME280_temperature;BME280_humidity;BME280_pressure;Samples;Min_cycle;Max_cycle;Signal;HPM_P1;HPM_P2
2023/03/16 00:02:02;;;;;;;1.40;0.90;;;;;;;3.39;70.99;93928.03;5101211;28;20020;-75
2023/03/16 00:04:28;;;;;;;1.90;1.20;;;;;;;3.46;71.31;93932.66;5092190;28;20032;-76
2023/03/16 00:06:53;;;;;;;1.67;1.17;;;;;;;3.48;72.20;93929.94;5060622;28;20479;-76
2023/03/16 00:09:18;;;;;;;1.83;1.20;;;;;;;3.43;71.08;93934.59;5093507;28;20460;-76
2023/03/16 00:11:44;;;;;;;1.50;0.90;;;;;;;3.20;70.85;93924.13;5093428;28;20035;-76
2023/03/16 00:14:09;;;;;;;1.85;1.17;;;;;;;3.28;71.77;93939.03;5091697;28;20044;-76
2023/03/16 00:16:35;;;;;;;1.25;0.80;;;;;;;3.16;71.20;93919.34;5102799;28;20032;-76
2023/03/16 00:19:02;;;;;;;1.48;0.90;;;;;;;3.24;72.34;93937.59;5111091;28;20032;-76
2023/03/16 00:21:29;;;;;;;1.60;1.00;;;;;;;3.26;72.34;93934.00;5110965;28;20028;-76
2023/03/16 00:23:54;;;;;;;1.55;1.05;;;;;;;3.40;71.50;93947.63;5110742;28;20127;-76
2023/03/16 00:26:21;;;;;;;2.33;1.50;;;;;;;3.28;72.14;93944.16;5094490;28;20146;-76
2023/03/16 00:28:47;;;;;;;1.77;1.20;;;;;;;3.31;72.22;93952.47;5090328;28;20210;-76
2023/03/16 00:31:12;;;;;;;2.00;1.30;;;;;;;3.30;71.80;93942.31;5076470;28;20505;-76
2023/03/16 00:33:38;;;;;;;1.60;0.90;;;;;;;3.07;71.42;93920.78;5076059;28;20042;-76
2023/03/16 00:36:06;;;;;;;1.90;1.17;;;;;;;3.00;72.97;93943.44;5127595;27;20027;-76
2023/03/16 00:38:36;;;;;;;2.40;1.30;;;;;;;2.84;73.22;93945.41;5110729;28;20023;-76
2023/03/16 00:41:02;;;;;;;1.45;0.90;;;;;;;2.95;72.09;93942.94;5097058;28;20035;-77
2023/03/16 00:43:29;;;;;;;1.85;1.00;;;;;;;3.04;71.58;93964.63;5127128;27;20040;-76
2023/03/16 00:46:05;;;;;;;2.10;1.10;;;;;;;2.87;72.30;93950.31;5110140;28;20047;-76
2023/03/16 00:48:33;;;;;;;1.80;0.90;;;;;;;3.04;72.93;93957.75;5073881;28;20032;-76
2023/03/16 00:51:01;;;;;;;2.08;1.20;;;;;;;3.05;72.32;93956.81;5090391;28;20035;-77
2023/03/16 00:53:27;;;;;;;2.95;1.45;;;;;;;3.04;71.97;93962.06;5103916;28;20035;-76
2023/03/16 00:55:52;;;;;;;2.20;1.35;;;;;;;2.94;72.42;93946.44;5127019;28;20081;-76
2023/03/16 00:58:19;;;;;;;2.60;1.40;;;;;;;3.06;72.37;93971.25;5093878;28;20052;-77
2023/03/16 01:00:45;;;;;;;1.55;1.00;;;;;;;2.97;72.74;93977.03;5111024;28;20035;-76
2023/03/16 01:03:10;;;;;;;1.55;1.00;;;;;;;3.11;72.25;93974.34;5090098;28;20028;-76
2023/03/16 01:05:40;;;;;;;1.45;1.00;;;;;;;3.03;71.79;93974.03;5091508;28;20606;-76
2023/03/16 01:08:07;;;;;;;1.58;1.10;;;;;;;2.61;71.50;93924.66;5056655;28;20028;-76
2023/03/16 01:10:33;;;;;;;1.38;0.80;;;;;;;2.78;71.73;93932.97;5104335;28;20031;-77
2023/03/16 01:12:59;;;;;;;1.60;0.82;;;;;;;2.94;71.38;93974.66;5127273;27;20062;-76
2023/03/16 01:15:24;;;;;;;1.73;1.00;;;;;;;2.77;72.75;93962.13;5111183;28;20071;-76
2023/03/16 01:17:50;;;;;;;3.50;1.70;;;;;;;2.68;72.58;93966.94;5093205;28;20526;-77
2023/03/16 01:20:18;;;;;;;1.65;1.00;;;;;;;2.80;71.97;93960.19;5115215;28;20120;-77
2023/03/16 01:22:43;;;;;;;3.40;1.60;;;;;;;2.33;72.12;93904.31;5089777;28;20021;-76
2023/03/16 01:25:10;;;;;;;2.30;1.13;;;;;;;2.75;72.87;93963.97;5091477;28;20036;-76
2023/03/16 01:27:36;;;;;;;1.83;1.20;;;;;;;2.49;72.54;93958.81;5072702;28;20024;-77
2023/03/16 01:30:04;;;;;;;1.90;1.02;;;;;;;2.67;73.07;93975.56;5107841;28;20066;-76
2023/03/16 01:32:29;;;;;;;1.67;1.10;;;;;;;2.56;72.77;93949.78;5126772;28;20023;-77
2023/03/16 01:34:55;;;;;;;2.20;1.50;;;;;;;2.74;72.80;93968.28;5111827;28;20031;-77
2023/03/16 01:37:21;;;;;;;1.65;1.10;;;;;;;2.69;72.61;93975.44;5110175;28;20073;-76
2023/03/16 01:39:47;;;;;;;1.83;1.00;;;;;;;2.65;73.26;93956.88;5110859;28;20432;-76
2023/03/16 01:42:13;;;;;;;1.60;1.00;;;;;;;2.62;73.47;93976.78;5127194;27;20102;-76
2023/03/16 01:44:50;;;;;;;1.13;0.80;;;;;;;2.61;72.02;93980.25;5109460;28;20516;-76
2023/03/16 01:47:17;;;;;;;35.65;12.15;;;;;;;2.34;73.46;93976.00;5099647;28;20176;-76
2023/03/16 01:49:46;;;;;;;2.53;1.52;;;;;;;2.29;71.92;93964.41;5092604;28;20039;-76
2023/03/16 01:52:13;;;;;;;1.02;0.70;;;;;;;2.49;71.44;93991.31;5103640;28;20027;-76
2023/03/16 01:54:49;;;;;;;1.73;0.80;;;;;;;2.43;71.69;93992.53;5134778;27;20112;-76
2023/03/16 01:57:20;;;;;;;0.98;0.70;;;;;;;2.28;72.90;93993.50;5110485;28;20058;-76
2023/03/16 01:59:52;;;;;;;1.88;1.40;;;;;;;2.18;72.97;93988.97;5110538;27;20032;-76
2023/03/16 02:02:18;;;;;;;2.17;1.73;;;;;;;1.91;74.27;93970.19;5110094;28;20032;-76
2023/03/16 02:05:10;;;;;;;2.55;1.67;;;;;;;2.26;73.48;93997.88;5109605;28;20036;-76
2023/03/16 02:07:48;;;;;;;2.25;1.42;;;;;;;2.21;74.19;93999.00;5094633;28;20024;-76
2023/03/16 02:10:14;;;;;;;2.30;1.27;;;;;;;2.07;74.29;94001.63;5090360;28;20504;-77
2023/03/16 02:12:40;;;;;;;2.00;1.05;;;;;;;2.03;74.77;94007.84;5096073;28;20024;-76
2023/03/16 02:15:06;;;;;;;1.95;1.10;;;;;;;1.98;75.01;94008.16;5111334;28;20027;-77
2023/03/16 02:17:31;;;;;;;1.30;0.88;;;;;;;1.91;74.81;94001.75;5113520;28;20035;-77
2023/03/16 02:20:15;;;;;;;1.35;0.88;;;;;;;1.95;74.29;94016.03;5112966;28;20028;-76
2023/03/16 02:22:46;;;;;;;1.30;0.80;;;;;;;2.05;73.97;94012.88;5111901;28;20085;-77
2023/03/16 02:25:12;;;;;;;2.07;1.00;;;;;;;1.92;74.50;94025.63;5113265;28;20034;-77
2023/03/16 02:28:06;;;;;;;1.40;0.85;;;;;;;2.06;74.39;94025.59;5130442;27;20106;-77
2023/03/16 02:30:32;;;;;;;1.92;1.00;;;;;;;1.90;75.21;94019.78;5097412;28;20044;-76
2023/03/16 02:32:57;;;;;;;1.40;0.90;;;;;;;2.00;74.93;94029.34;5075346;28;20028;-76
2023/03/16 02:35:23;;;;;;;1.70;1.00;;;;;;;2.02;74.36;94036.94;5092770;28;20058;-76
2023/03/16 02:37:48;;;;;;;2.28;1.10;;;;;;;2.11;74.35;94033.81;5095297;28;20477;-76
2023/03/16 02:40:24;;;;;;;1.90;1.10;;;;;;;2.07;74.68;94041.81;5092472;28;20367;-76
2023/03/16 02:43:13;;;;;;;1.63;1.00;;;;;;;2.25;74.25;94048.31;5092486;28;20069;-76
2023/03/16 02:45:48;;;;;;;1.25;0.90;;;;;;;1.94;74.48;93996.44;5095673;28;20038;-76
2023/03/16 02:48:21;;;;;;;2.20;1.05;;;;;;;2.01;74.94;94022.50;5129346;27;20107;-76
2023/03/16 02:50:47;;;;;;;1.27;0.90;;;;;;;2.12;74.36;94040.59;5119135;27;20055;-76
2023/03/16 02:53:13;;;;;;;1.77;1.10;;;;;;;2.09;73.14;94027.97;5126229;27;20027;-76
2023/03/16 02:55:39;;;;;;;1.40;0.90;;;;;;;1.99;73.33;94029.47;5110284;27;20056;-76
2023/03/16 02:58:04;;;;;;;2.53;1.50;;;;;;;1.94;74.50;94054.53;5110180;28;20420;-76
2023/03/16 03:00:31;;;;;;;1.60;1.05;;;;;;;2.02;74.61;94047.19;5074749;28;20024;-77
2023/03/16 03:02:56;;;;;;;1.50;0.90;;;;;;;2.07;74.09;94041.81;5098341;28;20016;-77
2023/03/16 03:05:22;;;;;;;1.80;1.25;;;;;;;1.92;73.77;94051.22;5112501;28;20477;-76
2023/03/16 03:07:48;;;;;;;1.90;1.10;;;;;;;1.98;74.33;94066.25;5077425;28;20027;-77
2023/03/16 03:10:13;;;;;;;1.45;0.93;;;;;;;1.67;74.15;94039.09;5095630;28;20035;-77
2023/03/16 03:12:39;;;;;;;1.65;1.10;;;;;;;1.80;73.88;94057.94;5111994;28;20076;-77
2023/03/16 03:15:05;;;;;;;1.63;1.05;;;;;;;2.02;73.31;94077.94;5091115;28;20028;-77
2023/03/16 03:17:30;;;;;;;1.73;1.25;;;;;;;1.94;73.98;94059.66;5093549;28;20060;-76
2023/03/16 03:19:57;;;;;;;2.10;1.00;;;;;;;1.64;74.52;94040.09;5108506;28;20046;-77
2023/03/16 03:22:23;;;;;;;1.30;0.60;;;;;;;1.91;72.87;94072.66;5108431;28;20036;-77
2023/03/16 03:24:48;;;;;;;1.02;0.65;;;;;;;1.82;73.88;94073.22;5075023;28;20039;-77
2023/03/16 03:27:14;;;;;;;0.82;0.55;;;;;;;1.85;74.13;94078.16;5077160;28;20401;-77
2023/03/16 03:29:39;;;;;;;0.73;0.60;;;;;;;1.98;73.13;94079.06;5112232;28;20035;-77
2023/03/16 03:32:05;;;;;;;1.20;0.80;;;;;;;1.77;73.74;94081.16;5094732;28;20114;-77
2023/03/16 03:34:30;;;;;;;4.38;2.00;;;;;;;1.73;73.93;94072.03;5111747;28;20106;-77
2023/03/16 03:36:56;;;;;;;2.90;1.48;;;;;;;1.83;73.74;94085.09;5077011;28;20028;-77
2023/03/16 03:39:22;;;;;;;1.85;0.98;;;;;;;1.74;74.21;94083.91;5111049;28;20038;-77
2023/03/16 03:41:47;;;;;;;1.13;0.80;;;;;;;1.75;73.68;94080.44;5111454;28;20536;-77
2023/03/16 03:44:12;;;;;;;1.35;0.90;;;;;;;1.64;73.79;94104.09;5112263;28;20108;-77
2023/03/16 03:46:38;;;;;;;0.98;0.70;;;;;;;1.74;74.03;94104.41;5111724;28;20024;-77
2023/03/16 03:49:04;;;;;;;1.25;0.73;;;;;;;1.65;73.61;94108.34;5111553;28;20051;-77
2023/03/16 03:51:30;;;;;;;1.50;0.90;;;;;;;1.64;74.59;94099.00;5094173;28;20493;-77
2023/03/16 03:53:56;;;;;;;1.67;1.02;;;;;;;1.63;74.84;94120.41;5074007;28;20066;-77
2023/03/16 03:56:22;;;;;;;1.23;0.80;;;;;;;1.62;73.54;94118.75;5091753;28;20059;-76
2023/03/16 03:58:48;;;;;;;1.65;0.90;;;;;;;1.64;72.99;94116.91;5111340;28;20032;-77
2023/03/16 04:01:13;;;;;;;35.97;12.13;;;;;;;1.51;74.14;94116.00;5094206;28;20062;-77
2023/03/16 04:03:38;;;;;;;14.95;5.75;;;;;;;1.48;73.98;94103.41;5110122;28;20039;-77
2023/03/16 04:06:06;;;;;;;6.40;4.15;;;;;;;1.55;75.20;94122.59;5094391;28;20031;-77
2023/03/16 04:08:31;;;;;;;2.20;1.40;;;;;;;1.65;72.61;94107.53;5111359;28;20106;-77
2023/03/16 04:10:57;;;;;;;1.90;1.50;;;;;;;1.60;73.61;94115.47;5108829;28;20053;-77
2023/03/16 04:13:22;;;;;;;1.40;1.08;;;;;;;1.69;73.35;94120.03;5088257;28;20028;-77
2023/03/16 04:15:48;;;;;;;4.60;3.50;;;;;;;1.55;73.86;94120.84;5105904;28;20032;-77
2023/03/16 04:18:13;;;;;;;2.95;1.92;;;;;;;1.65;73.82;94128.81;5091108;28;20019;-77
2023/03/16 04:20:39;;;;;;;1.90;1.27;;;;;;;1.38;72.67;94085.19;5114868;27;20036;-77
2023/03/16 04:23:04;;;;;;;2.33;1.70;;;;;;;1.51;72.96;94128.81;5089033;28;20032;-77
2023/03/16 04:25:30;;;;;;;2.72;2.03;;;;;;;1.60;73.28;94125.69;5123089;27;20518;-77
2023/03/16 04:27:55;;;;;;;1.55;1.02;;;;;;;1.57;73.25;94115.66;5116911;27;20412;-77
2023/03/16 04:30:22;;;;;;;2.42;1.77;;;;;;;1.63;73.39;94133.19;5110850;28;20032;-77
2023/03/16 04:32:47;;;;;;;3.72;2.50;;;;;;;1.70;73.04;94141.34;5094161;28;20027;-77
2023/03/16 04:35:14;;;;;;;2.70;1.90;;;;;;;1.61;73.59;94147.81;5094147;28;20040;-77
2023/03/16 04:37:40;;;;;;;2.30;1.40;;;;;;;1.72;72.37;94147.19;5127467;27;20155;-77
2023/03/16 04:40:15;;;;;;;1.60;0.95;;;;;;;1.61;72.42;94154.69;5076772;28;20060;-77
2023/03/16 04:42:40;;;;;;;2.20;1.67;;;;;;;1.51;72.82;94131.38;5094998;28;20393;-77
2023/03/16 04:45:07;;;;;;;1.90;1.40;;;;;;;1.64;73.22;94172.44;5110145;28;20039;-77
2023/03/16 04:47:33;;;;;;;1.80;1.00;;;;;;;1.33;72.93;94112.78;5127501;27;20045;-77
2023/03/16 04:49:59;;;;;;;3.35;1.65;;;;;;;1.52;72.25;94174.78;5110577;28;20147;-77
2023/03/16 04:52:25;;;;;;;2.80;1.58;;;;;;;1.49;72.17;94169.03;5093619;28;20115;-77
2023/03/16 04:54:50;;;;;;;2.42;1.58;;;;;;;1.37;73.04;94182.53;5093464;28;20531;-77
2023/03/16 04:57:18;;;;;;;3.13;1.50;;;;;;;1.40;73.04;94172.13;5110220;28;20031;-78
2023/03/16 04:59:43;;;;;;;1.70;0.90;;;;;;;1.51;72.40;94185.13;5108926;28;20028;-77
2023/03/16 05:02:09;;;;;;;2.00;0.90;;;;;;;1.39;72.31;94162.78;5104240;28;20035;-78
2023/03/16 05:04:35;;;;;;;2.20;1.80;;;;;;;1.59;72.88;94195.75;5106643;28;20487;-77
2023/03/16 05:07:00;;;;;;;1.98;1.38;;;;;;;1.34;72.99;94199.72;5107770;28;20381;-77
2023/03/16 05:09:26;;;;;;;6.88;2.53;;;;;;;1.31;73.13;94191.38;5071958;28;20032;-77
2023/03/16 05:11:51;;;;;;;3.00;1.48;;;;;;;1.44;73.26;94197.44;5089672;28;20040;-77
2023/03/16 05:14:23;;;;;;;1.73;1.13;;;;;;;1.40;72.68;94197.72;5104919;28;20085;-77
2023/03/16 05:16:48;;;;;;;2.88;1.40;;;;;;;1.52;72.80;94205.50;5082714;28;20062;-77
2023/03/16 05:19:13;;;;;;;2.15;1.50;;;;;;;1.48;72.37;94210.91;5118084;28;20032;-77
2023/03/16 05:21:39;;;;;;;3.17;1.77;;;;;;;1.57;72.42;94218.06;5105922;28;20038;-77
2023/03/16 05:24:05;;;;;;;2.30;1.35;;;;;;;1.47;72.14;94204.13;5108125;28;20570;-77
2023/03/16 05:26:30;;;;;;;1.77;0.88;;;;;;;1.42;72.69;94216.34;5075292;28;20041;-77
2023/03/16 05:28:57;;;;;;;3.10;1.77;;;;;;;1.45;72.74;94219.59;5110169;28;20046;-77
2023/03/16 05:31:24;;;;;;;3.67;1.80;;;;;;;1.35;72.67;94203.09;5109571;28;20024;-77
2023/03/16 05:33:51;;;;;;;2.67;1.23;;;;;;;1.20;73.16;94216.72;5108742;28;20546;-77
2023/03/16 05:36:16;;;;;;;2.50;1.83;;;;;;;1.40;73.87;94231.00;5122740;27;20043;-77
2023/03/16 05:38:42;;;;;;;5.50;4.20;;;;;;;0.91;73.50;94191.03;5111698;27;20135;-77
2023/03/16 05:41:08;;;;;;;5.07;3.50;;;;;;;1.17;73.04;94204.97;5075422;28;20497;-77
2023/03/16 05:43:33;;;;;;;2.50;1.67;;;;;;;1.15;72.54;94196.53;5076588;28;20028;-77
2023/03/16 05:45:58;;;;;;;2.88;1.75;;;;;;;1.42;73.46;94239.38;5109277;28;20471;-78
2023/03/16 05:48:25;;;;;;;5.60;3.15;;;;;;;1.30;72.11;94225.56;5088794;28;20637;-77
2023/03/16 05:50:51;;;;;;;14.90;8.32;;;;;;;1.40;72.40;94244.63;5109101;28;20106;-77
2023/03/16 05:53:16;;;;;;;26.27;10.48;;;;;;;1.40;72.80;94244.63;5107578;28;20073;-77
2023/03/16 05:55:42;;;;;;;8.85;4.47;;;;;;;1.27;72.97;94252.13;5090486;28;20055;-77
2023/03/16 05:58:07;;;;;;;4.22;2.58;;;;;;;1.45;73.04;94240.06;5091819;28;20481;-77
2023/03/16 06:00:33;;;;;;;3.08;2.10;;;;;;;1.27;73.13;94208.63;5109104;28;20080;-77
2023/03/16 06:02:58;;;;;;;2.80;1.67;;;;;;;1.55;73.35;94259.09;5107526;28;20028;-78
2023/03/16 06:05:24;;;;;;;2.17;1.38;;;;;;;1.49;72.58;94250.94;5091338;28;20277;-77
2023/03/16 06:07:50;;;;;;;2.78;2.17;;;;;;;1.36;72.91;94252.53;5075003;28;20028;-77
2023/03/16 06:10:16;;;;;;;3.25;1.60;;;;;;;1.30;73.12;94266.50;5091961;28;20035;-77
2023/03/16 06:12:42;;;;;;;2.80;1.80;;;;;;;1.37;73.05;94264.44;5109077;28;20084;-78
2023/03/16 06:15:08;;;;;;;4.15;2.08;;;;;;;1.26;73.72;94272.72;5106250;28;20163;-77
2023/03/16 06:17:34;;;;;;;29.80;12.07;;;;;;;1.27;74.98;94262.38;5073982;28;20035;-77
2023/03/16 06:20:00;;;;;;;18.67;7.80;;;;;;;1.39;74.80;94273.66;5088567;28;20039;-77
2023/03/16 06:22:26;;;;;;;10.32;5.30;;;;;;;1.36;75.36;94275.56;5091910;28;20323;-78
2023/03/16 06:24:54;;;;;;;6.43;3.17;;;;;;;1.32;73.84;94265.50;5106124;28;20036;-77
2023/03/16 06:27:20;;;;;;;9.07;4.03;;;;;;;1.40;74.99;94287.31;5075697;28;20401;-78
2023/03/16 06:29:46;;;;;;;2.72;1.67;;;;;;;1.41;73.45;94279.53;5107067;28;20036;-77
2023/03/16 06:32:12;;;;;;;1.95;1.10;;;;;;;1.59;72.47;94292.19;5105969;28;20028;-78
2023/03/16 06:34:38;;;;;;;6.38;3.33;;;;;;;1.41;73.51;94271.03;5083892;28;20092;-78
2023/03/16 06:37:03;;;;;;;4.25;1.75;;;;;;;1.21;74.51;94278.06;5104709;28;20496;-79
2023/03/16 06:39:29;;;;;;;5.25;2.50;;;;;;;1.39;72.87;94276.22;5072688;28;20493;-78
2023/03/16 06:41:55;;;;;;;7.57;4.28;;;;;;;1.50;73.82;94307.16;5092051;28;20438;-77
2023/03/16 06:44:20;;;;;;;5.07;2.92;;;;;;;1.39;73.62;94260.03;5089628;28;20040;-77
2023/03/16 06:46:46;;;;;;;7.18;3.00;;;;;;;1.77;71.92;94309.94;5109438;28;20112;-77
2023/03/16 06:49:11;;;;;;;5.25;2.53;;;;;;;1.57;72.44;94310.22;5091020;28;20042;-77
2023/03/16 06:51:37;;;;;;;11.32;5.10;;;;;;;1.69;72.52;94322.34;5090355;28;20034;-77
2023/03/16 06:54:02;;;;;;;33.83;14.75;;;;;;;1.70;72.46;94311.19;5072499;28;20393;-78
2023/03/16 06:56:28;;;;;;;25.15;9.35;;;;;;;1.60;72.04;94284.44;5110394;28;20491;-77
2023/03/16 06:58:53;;;;;;;6.50;3.10;;;;;;;1.69;70.51;94324.91;5090619;28;20023;-77
2023/03/16 07:01:19;;;;;;;4.82;2.40;;;;;;;1.47;71.63;94294.53;5106549;28;20130;-77
2023/03/16 07:03:44;;;;;;;3.72;2.03;;;;;;;1.83;71.42;94311.31;5105010;27;20148;-77
2023/03/16 07:06:11;;;;;;;7.18;4.07;;;;;;;1.88;71.56;94326.44;5092483;28;20047;-77
2023/03/16 07:08:36;;;;;;;13.63;9.70;;;;;;;1.82;70.49;94330.16;5088697;28;20035;-78
2023/03/16 07:11:02;;;;;;;5.15;3.45;;;;;;;1.91;70.27;94333.94;5108565;27;20027;-77
2023/03/16 07:13:27;;;;;;;4.13;2.70;;;;;;;2.10;68.84;94336.28;5076118;27;20028;-77
2023/03/16 07:15:53;;;;;;;8.32;5.90;;;;;;;2.03;69.17;94330.66;5089476;27;20459;-77
2023/03/16 07:18:19;;;;;;;7.25;3.40;;;;;;;2.01;68.95;94319.72;5117890;27;20476;-77
2023/03/16 07:20:44;;;;;;;10.20;7.45;;;;;;;2.15;69.13;94335.13;5092442;28;20051;-77
2023/03/16 07:23:09;;;;;;;13.38;6.97;;;;;;;2.13;68.65;94313.88;5089701;28;20027;-77
2023/03/16 07:25:35;;;;;;;3.75;2.25;;;;;;;2.05;69.05;94307.53;5103990;28;20043;-77
2023/03/16 07:28:01;;;;;;;5.03;3.38;;;;;;;2.11;69.38;94346.44;5087991;28;20024;-77
2023/03/16 07:30:26;;;;;;;2.65;1.63;;;;;;;2.15;68.31;94344.53;5104830;28;20084;-77
2023/03/16 07:32:52;;;;;;;3.20;1.80;;;;;;;2.17;68.36;94340.13;5087869;28;20050;-77
2023/03/16 07:35:17;;;;;;;1.85;1.17;;;;;;;2.36;67.29;94352.72;5108096;28;20040;-77
2023/03/16 07:37:43;;;;;;;7.88;5.28;;;;;;;2.28;68.42;94354.91;5089304;28;20058;-77
2023/03/16 07:40:09;;;;;;;4.65;3.25;;;;;;;2.10;68.38;94333.72;5092444;28;20555;-77
2023/03/16 07:42:35;;;;;;;3.33;2.22;;;;;;;2.30;68.60;94355.66;5091881;28;20028;-77
2023/03/16 07:45:01;;;;;;;2.90;2.08;;;;;;;2.07;69.65;94350.09;5092550;28;20043;-77
2023/03/16 07:47:27;;;;;;;3.45;2.03;;;;;;;2.26;69.21;94369.53;5090103;28;20081;-77
2023/03/16 07:49:52;;;;;;;4.53;3.58;;;;;;;2.33;69.80;94363.16;5088818;28;20036;-77
2023/03/16 07:52:18;;;;;;;5.70;4.10;;;;;;;2.20;70.11;94365.59;5089244;28;20477;-77
2023/03/16 07:54:43;;;;;;;3.10;2.35;;;;;;;2.36;69.53;94371.47;5088926;28;20032;-77
2023/03/16 07:57:09;;;;;;;2.45;1.73;;;;;;;2.21;69.67;94369.81;5105709;28;20024;-77
2023/03/16 07:59:34;;;;;;;5.45;3.60;;;;;;;2.29;69.67;94375.31;5090144;28;20221;-77
2023/03/16 08:02:00;;;;;;;5.68;4.03;;;;;;;2.49;68.89;94374.19;5071977;28;20489;-77
2023/03/16 08:04:25;;;;;;;3.55;2.88;;;;;;;2.41;68.04;94379.75;5090897;28;20035;-77
2023/03/16 08:06:52;;;;;;;2.67;1.90;;;;;;;2.30;67.80;94371.84;5091685;28;20106;-77
2023/03/16 08:09:18;;;;;;;3.20;2.17;;;;;;;2.29;67.50;94374.50;5107854;27;20047;-77
2023/03/16 08:11:43;;;;;;;5.22;3.08;;;;;;;2.43;67.57;94392.47;5091476;28;20020;-77
2023/03/16 08:14:09;;;;;;;8.55;4.70;;;;;;;2.40;67.16;94387.53;5091292;28;20040;-77
2023/03/16 08:16:34;;;;;;;5.43;4.32;;;;;;;2.52;67.52;94391.94;5090455;28;20507;-77
2023/03/16 08:19:00;;;;;;;3.33;1.65;;;;;;;2.51;66.72;94392.88;5090847;28;20036;-77
2023/03/16 08:21:25;;;;;;;3.35;1.70;;;;;;;2.52;66.47;94375.75;5090487;28;20040;-77
2023/03/16 08:23:51;;;;;;;3.20;2.30;;;;;;;2.74;66.04;94406.09;5091010;28;20028;-77
2023/03/16 08:26:17;;;;;;;4.75;4.10;;;;;;;2.67;67.07;94395.34;5107821;28;20081;-77
2023/03/16 08:28:44;;;;;;;5.78;4.22;;;;;;;2.62;67.40;94387.94;5073876;28;20042;-77
2023/03/16 08:31:11;;;;;;;5.10;3.42;;;;;;;2.74;66.88;94395.81;5057713;28;20078;-77
2023/03/16 08:33:37;;;;;;;4.07;2.80;;;;;;;2.75;66.41;94392.34;5073797;28;20098;-77
2023/03/16 08:36:05;;;;;;;5.43;4.00;;;;;;;2.67;67.06;94383.38;5073551;28;20030;-77
2023/03/16 08:38:31;;;;;;;7.15;5.72;;;;;;;2.81;66.50;94402.22;5073408;28;20501;-77
2023/03/16 08:40:57;;;;;;;60.45;22.00;;;;;;;2.86;65.78;94400.22;5074174;28;20031;-77
2023/03/16 08:43:22;;;;;;;35.50;13.55;;;;;;;2.94;65.27;94392.91;5091052;28;20035;-77
2023/03/16 08:45:48;;;;;;;3.08;1.95;;;;;;;2.88;65.75;94416.34;5108338;27;20020;-77
2023/03/16 08:48:13;;;;;;;2.80;1.70;;;;;;;2.88;65.25;94413.78;5091639;28;20058;-76
2023/03/16 08:50:40;;;;;;;6.68;3.92;;;;;;;2.84;67.13;94425.13;5057948;28;20035;-77
2023/03/16 08:53:06;;;;;;;2.00;1.33;;;;;;;2.80;65.49;94421.94;5073705;28;20032;-77
2023/03/16 08:55:31;;;;;;;2.80;1.60;;;;;;;2.76;65.28;94409.38;5073978;28;20147;-76
2023/03/16 08:57:57;;;;;;;2.42;1.52;;;;;;;2.65;64.81;94413.41;5107967;28;20063;-77
2023/03/16 09:00:23;;;;;;;23.40;15.48;;;;;;;2.84;66.36;94412.31;5075275;28;20024;-77
2023/03/16 09:02:49;;;;;;;15.13;10.57;;;;;;;2.96;66.53;94423.63;5092702;28;20085;-77
2023/03/16 09:05:14;;;;;;;10.07;7.22;;;;;;;3.05;66.45;94431.56;5075062;28;20040;-77
2023/03/16 09:07:41;;;;;;;8.35;6.75;;;;;;;3.10;65.79;94441.56;5092476;28;20107;-77
2023/03/16 09:10:07;;;;;;;4.75;3.72;;;;;;;3.14;65.71;94438.72;5075249;28;20097;-77
2023/03/16 09:12:36;;;;;;;2.42;1.50;;;;;;;3.12;64.37;94430.31;5091386;28;20024;-77
2023/03/16 09:15:03;;;;;;;2.03;1.30;;;;;;;3.03;63.25;94428.25;5108644;28;20032;-77
2023/03/16 09:17:28;;;;;;;3.85;2.00;;;;;;;3.14;63.94;94440.47;5091965;28;20039;-77
2023/03/16 09:19:54;;;;;;;3.50;2.47;;;;;;;3.19;63.77;94440.19;5091651;28;20028;-77
2023/03/16 09:22:20;;;;;;;2.10;1.38;;;;;;;2.94;64.37;94416.00;5091632;28;20028;-77
2023/03/16 09:24:46;;;;;;;5.10;4.20;;;;;;;3.26;63.88;94434.63;5073664;28;20109;-77
2023/03/16 09:27:11;;;;;;;5.22;4.47;;;;;;;3.35;64.09;94439.19;5073231;28;20077;-77
2023/03/16 09:29:36;;;;;;;3.22;2.42;;;;;;;3.31;64.28;94431.75;5090861;28;20036;-77
2023/03/16 09:32:02;;;;;;;4.55;2.95;;;;;;;3.35;63.22;94438.38;5075129;28;20020;-77
2023/03/16 09:34:28;;;;;;;4.82;2.95;;;;;;;3.23;61.92;94428.81;5075428;28;20115;-76
2023/03/16 09:36:54;;;;;;;2.33;1.67;;;;;;;3.22;63.28;94440.00;5092900;28;20038;-77
2023/03/16 09:39:21;;;;;;;2.95;1.70;;;;;;;3.04;63.22;94435.06;5091373;28;20028;-77
2023/03/16 09:41:53;;;;;;;3.03;1.95;;;;;;;3.14;63.68;94441.28;5091892;28;20085;-77
2023/03/16 09:44:56;;;;;;;2.15;1.50;;;;;;;3.21;62.29;94444.34;5108451;28;20036;-77
2023/03/16 09:47:28;;;;;;;4.45;1.95;;;;;;;3.32;63.49;94438.56;5030336;28;20037;-77
2023/03/16 09:49:55;;;;;;;4.72;2.65;;;;;;;3.63;61.90;94449.53;5048619;28;20079;-77
2023/03/16 09:52:47;;;;;;;4.75;3.70;;;;;;;3.58;61.77;94437.78;5074053;28;20032;-77
2023/03/16 09:55:24;;;;;;;7.10;4.30;;;;;;;3.46;61.47;94446.25;5091186;28;20048;-77
2023/03/16 09:57:50;;;;;;;3.63;2.50;;;;;;;3.42;61.51;94442.19;5091329;28;20554;-77
2023/03/16 10:00:19;;;;;;;4.13;2.60;;;;;;;3.47;61.57;94455.59;5091083;28;20517;-77
2023/03/16 10:03:10;;;;;;;4.20;2.88;;;;;;;3.22;61.96;94433.13;5092858;28;20069;-77
2023/03/16 10:05:35;;;;;;;2.90;2.10;;;;;;;3.36;62.58;94460.53;5091171;28;20040;-77
2023/03/16 10:08:13;;;;;;;4.50;3.30;;;;;;;3.35;63.31;94458.91;5090372;28;20028;-77
2023/03/16 10:10:41;;;;;;;2.47;1.55;;;;;;;3.13;63.12;94461.94;5076048;28;20032;-77
2023/03/16 10:13:23;;;;;;;2.58;1.73;;;;;;;3.20;63.60;94470.91;5094952;28;20064;-77
2023/03/16 10:15:49;;;;;;;2.22;1.70;;;;;;;3.09;64.12;94465.56;5095636;28;20046;-77
2023/03/16 10:18:19;;;;;;;3.85;2.20;;;;;;;2.98;64.81;94421.75;5077824;28;20473;-77
2023/03/16 10:20:46;;;;;;;3.72;2.38;;;;;;;3.30;64.89;94460.91;5078093;28;20020;-77
2023/03/16 10:23:23;;;;;;;3.17;2.05;;;;;;;3.05;64.34;94444.41;5094522;28;20028;-77
2023/03/16 10:25:55;;;;;;;3.30;2.10;;;;;;;3.12;64.99;94443.16;5076828;28;20470;-77
2023/03/16 10:28:28;;;;;;;3.30;2.25;;;;;;;3.34;65.08;94457.25;5060593;28;20305;-77
2023/03/16 10:30:54;;;;;;;3.53;2.17;;;;;;;3.35;64.66;94444.31;5095206;28;20024;-77
2023/03/16 10:33:20;;;;;;;4.03;2.78;;;;;;;3.36;65.93;94450.28;5094979;28;20112;-77
2023/03/16 10:36:14;;;;;;;3.28;2.35;;;;;;;3.47;66.03;94453.03;5094504;28;20028;-77
2023/03/16 10:38:41;;;;;;;2.90;1.90;;;;;;;3.53;63.25;94454.38;5110480;28;20035;-77
2023/03/16 10:41:37;;;;;;;4.13;2.85;;;;;;;3.57;63.05;94459.25;5094136;28;20030;-77
2023/03/16 10:44:10;;;;;;;4.40;3.58;;;;;;;3.60;63.40;94465.13;5078366;28;20047;-77
2023/03/16 10:46:49;;;;;;;4.22;3.22;;;;;;;3.42;63.07;94421.66;5077306;28;20115;-77
2023/03/16 10:49:26;;;;;;;3.58;2.47;;;;;;;3.65;63.94;94455.38;5077086;28;20035;-77
2023/03/16 10:51:58;;;;;;;3.63;2.55;;;;;;;3.69;62.32;94457.69;5076072;28;20035;-77
2023/03/16 10:54:32;;;;;;;4.13;2.70;;;;;;;3.69;61.99;94456.84;5077349;28;20559;-77
2023/03/16 10:56:59;;;;;;;3.03;1.83;;;;;;;3.67;61.99;94458.69;5077553;28;20036;-77
2023/03/16 10:59:34;;;;;;;4.90;3.97;;;;;;;3.50;62.60;94447.69;5077101;28;20029;-77
2023/03/16 11:02:01;;;;;;;3.70;2.70;;;;;;;3.76;61.96;94464.09;5076815;28;20036;-77
2023/03/16 11:04:30;;;;;;;3.72;2.60;;;;;;;3.75;62.65;94459.03;5093648;28;20474;-77
2023/03/16 11:06:56;;;;;;;4.32;2.58;;;;;;;3.88;61.80;94470.22;5109802;28;20031;-77
2023/03/16 11:09:31;;;;;;;3.95;2.70;;;;;;;3.84;61.46;94461.03;5075730;28;20509;-77
2023/03/16 11:11:57;;;;;;;3.60;2.75;;;;;;;3.72;62.05;94456.66;5093121;28;20475;-77
2023/03/16 11:14:26;;;;;;;4.32;3.42;;;;;;;3.83;62.14;94454.25;5075709;28;20036;-77
2023/03/16 11:17:11;;;;;;;4.40;2.97;;;;;;;3.83;61.39;94456.81;5093152;28;20032;-77
2023/03/16 11:19:41;;;;;;;4.90;3.17;;;;;;;3.77;60.93;94452.06;5094072;28;20107;-77
2023/03/16 11:22:14;;;;;;;4.45;2.53;;;;;;;3.81;60.28;94453.50;5092292;28;20028;-77
2023/03/16 11:24:48;;;;;;;4.53;3.33;;;;;;;3.75;60.91;94451.34;5109437;28;20032;-77
2023/03/16 11:27:33;;;;;;;5.32;3.92;;;;;;;3.77;60.37;94459.78;5092791;28;20043;-77
2023/03/16 11:30:00;;;;;;;4.85;3.20;;;;;;;3.48;60.73;94471.81;5094112;28;20036;-77
2023/03/16 11:32:36;;;;;;;3.80;2.50;;;;;;;3.43;59.69;94430.22;5094348;28;20490;-77
2023/03/16 11:35:10;;;;;;;5.93;3.10;;;;;;;3.66;59.71;94469.91;5076744;28;20032;-77
2023/03/16 11:37:39;;;;;;;3.47;2.63;;;;;;;3.63;59.91;94473.47;5077457;28;20040;-77
2023/03/16 11:40:23;;;;;;;4.25;3.50;;;;;;;3.65;60.15;94470.78;5092790;28;20414;-77
2023/03/16 11:43:11;;;;;;;4.55;2.70;;;;;;;3.48;60.30;94466.69;5094535;28;20040;-77
2023/03/16 11:46:09;;;;;;;6.47;4.70;;;;;;;3.40;61.03;94459.47;5093314;28;20032;-77